Terminal Aerodrome Forecast
Issued by NWS Charleston, WV

Current Version | Previous Version | Graphics & Text | Print | Product List | Glossary On
Versions: 1 2 3 4 5 6 7 8 9 10 11 12 13 14 15 16 17 18 19 20 21 22 23 24 25 26
000
FTUS41 KRLX 270253 AAA
TAFCRW
TAF AMD
KCRW 270253Z 2703/2724 32005KT P6SM OVC018
     FM270600 VRB03KT 3SM BR FEW001
     FM270800 VRB03KT 1SM BR FEW001
     FM271000 VRB03KT 1/4SM FG VV001
     FM271300 VRB03KT 1SM BR FEW001
     FM271400 22004KT P6SM SKC=

USA.gov is the U.S. government's official web portal to all federal, state and local government web resources and services.